Data for 05/15/2006

Time Sea-Level Adjusted Pressure Absolute Pressure Temperature Relative Humidity Dew Point   
(mb) (inHg) (mb) (inHg) (C) (F) (%) (C) (F)
00:05 1027 30.33 856 25.28 14.3 57.8 32 -2 28.4
00:10 1027 30.33 856 25.28 14.3 57.7 32 -2 28.3
00:15 1027 30.33 856 25.28 14.2 57.5 33 -1.9 28.5
00:20 1027 30.33 856 25.28 14.1 57.3 33 -2 28.5
00:25 1027 30.33 856 25.28 14 57.1 34 -1.8 28.8
00:30 1027 30.33 856 25.28 13.8 56.9 34 -1.7 28.9
00:35 1027 30.33 856 25.28 13.7 56.7 34 -1.8 28.8
00:40 1027 30.33 856 25.28 13.6 56.5 34 -1.8 28.8
00:45 1027 30.33 856 25.28 13.7 56.7 34 -1.7 29
00:50 1027 30.33 856 25.28 13.7 56.6 34 -1.7 28.9
00:55 1027 30.33 856 25.28 13.7 56.6 35 -1.6 29.1
01:00 1027 30.33 856 25.28 13.6 56.5 34 -1.7 29
01:05 1027 30.33 856 25.28 13.5 56.3 35 -1.6 29.2
01:10 1026 30.3 856 25.28 13.5 56.3 35 -1.7 28.9
01:15 1026 30.3 856 25.28 13.5 56.3 35 -1.6 29.1
01:20 1026 30.3 856 25.28 13.3 56 35 -1.6 29.1
01:25 1026 30.3 856 25.28 13.2 55.8 36 -1.5 29.3
01:30 1026 30.3 856 25.28 13.2 55.7 36 -1.4 29.5
01:35 1026 30.3 856 25.28 13.1 55.5 37 -1.3 29.7
01:40 1026 30.3 856 25.28 13 55.3 37 -1.1 29.9
01:45 1026 30.3 856 25.28 12.8 55 38 -1.1 30
01:50 1026 30.3 856 25.28 12.8 55 38 -1.2 29.9
01:55 1026 30.3 856 25.28 12.8 55 38 -1.2 29.8
02:00 1026 30.3 856 25.28 12.9 55.1 38 -1 30.1
02:05 1026 30.3 856 25.28 12.9 55.1 38 -1 30.3
02:10 1026 30.3 856 25.28 12.8 55 39 -0.9 30.4
02:15 1027 30.33 856 25.28 12.7 54.8 39 -0.8 30.5
02:20 1026 30.3 856 25.28 12.6 54.8 39 -0.8 30.5
02:25 1027 30.33 856 25.28 12.6 54.7 39 -0.8 30.5
02:30 1027 30.33 856 25.28 12.6 54.6 40 -0.7 30.8
02:35 1027 30.33 856 25.28 12.5 54.4 40 -0.7 30.8
02:40 1027 30.33 856 25.28 12.4 54.4 40 -0.8 30.6
02:45 1027 30.33 856 25.28 12.5 54.5 40 -0.7 30.7
02:50 1027 30.33 856 25.28 12.4 54.4 40 -0.7 30.8
02:55 1027 30.33 856 25.28 12.4 54.2 41 -0.6 31
03:00 1027 30.33 856 25.28 12.3 54.2 41 -0.6 31
03:05 1027 30.33 856 25.28 12.3 54.1 41 -0.6 30.9
03:10 1027 30.33 856 25.28 12.2 54 41 -0.6 31
03:15 1027 30.33 856 25.28 12.1 53.9 41 -0.7 30.8
03:20 1027 30.33 856 25.28 12.2 54 41 -0.6 31
03:25 1027 30.33 856 25.28 12.2 54 41 -0.6 30.9
03:30 1027 30.33 856 25.28 12.1 53.8 41 -0.6 30.9
03:35 1027 30.33 856 25.28 12.1 53.7 41 -0.6 31
03:40 1027 30.33 856 25.28 12 53.6 41 -0.6 30.9
03:45 1027 30.33 856 25.28 12 53.7 41 -0.7 30.8
03:50 1027 30.33 856 25.28 12.1 53.7 41 -0.6 30.8
03:55 1027 30.33 856 25.28 12 53.7 41 -0.6 30.9
04:00 1027 30.33 856 25.28 12 53.6 41 -0.7 30.8
04:05 1027 30.33 856 25.28 12.1 53.7 41 -0.6 30.8
04:10 1027 30.33 856 25.28 12.1 53.9 41 -0.8 30.5
04:15 1027 30.33 856 25.28 12.2 53.9 41 -0.7 30.8
04:20 1027 30.33 856 25.28 12.1 53.7 41 -0.7 30.7
04:25 1027 30.33 856 25.28 12 53.7 41 -0.7 30.7
04:30 1027 30.33 856 25.28 12 53.6 41 -0.8 30.6
04:35 1027 30.33 856 25.28 11.9 53.5 42 -0.7 30.8
04:40 1027 30.33 856 25.28 11.8 53.2 42 -0.6 30.9
04:45 1027 30.33 856 25.28 11.7 53 42 -0.6 30.9
04:50 1027 30.33 856 25.28 11.5 52.8 43 -0.7 30.8
04:55 1027 30.33 856 25.28 11.4 52.6 43 -0.6 30.9
05:00 1027 30.33 856 25.28 11.2 52.2 44 -0.6 31
05:05 1027 30.33 856 25.28 11.2 52.1 44 -0.6 31
05:10 1027 30.33 856 25.28 11.2 52.1 44 -0.7 30.7
05:15 1027 30.33 856 25.28 11.2 52.2 44 -0.6 30.9
05:20 1027 30.33 856 25.28 11.2 52.2 44 -0.6 31
05:25 1027 30.33 856 25.28 11.2 52.1 44 -0.6 30.9
05:30 1027 30.33 856 25.28 11.2 52.1 44 -0.6 30.9
05:35 1027 30.33 856 25.28 11.1 52 44 -0.6 31
05:40 1027 30.33 856 25.28 11.2 52.1 44 -0.7 30.8
05:45 1027 30.33 856 25.28 11.2 52.1 44 -0.5 31.1
05:50 1027 30.33 856 25.28 11 51.8 45 -0.5 31.1
05:55 1027 30.33 856 25.28 10.8 51.5 45 -0.5 31.1
06:00 1027 30.33 857 25.31 10.8 51.4 46 -0.4 31.3
06:05 1027 30.33 857 25.31 10.7 51.3 46 -0.5 31.1
06:10 1027 30.33 857 25.31 10.8 51.4 45 -0.5 31.1
06:15 1027 30.33 857 25.31 10.7 51.3 46 -0.4 31.3
06:20 1027 30.33 857 25.31 10.7 51.2 47 -0.3 31.5
06:25 1027 30.33 857 25.31 10.5 50.9 47 -0.3 31.5
06:30 1027 30.33 857 25.31 10.4 50.7 48 -0.2 31.6
06:35 1028 30.36 857 25.31 10.4 50.8 47 -0.4 31.2
06:40 1028 30.36 857 25.31 10.6 51 46 -0.4 31.3
06:45 1028 30.36 857 25.31 10.8 51.5 46 -0.4 31.3
06:50 1028 30.36 857 25.31 11 51.9 45 -0.3 31.4
06:55 1028 30.36 857 25.31 11.1 51.9 45 -0.4 31.3
07:00 1028 30.36 857 25.31 11.2 52.2 44 -0.4 31.3
07:05 1028 30.36 857 25.31 11.4 52.5 44 -0.3 31.4
07:10 1028 30.36 857 25.31 11.6 53 44 -0.1 31.8
07:15 1028 30.36 857 25.31 11.8 53.2 44 -0 31.9
07:20 1028 30.36 857 25.31 12 53.7 43 -0.1 31.9
07:25 1028 30.36 857 25.31 12.2 54 42 -0.2 31.7
07:30 1028 30.36 857 25.31 12.3 54.2 42 -0.2 31.7
07:35 1028 30.36 857 25.31 12.6 54.6 41 -0.4 31.3
07:40 1028 30.36 857 25.31 12.8 55 40 -0.4 31.2
07:45 1028 30.36 857 25.31 12.9 55.1 40 -0.4 31.3
07:50 1028 30.36 857 25.31 13 55.5 40 -0.3 31.4
07:55 1028 30.36 857 25.31 13.2 55.8 39 -0.2 31.6
08:00 1028 30.36 857 25.31 13.4 56 39 -0.1 31.8
08:05 1028 30.36 857 25.31 13.6 56.5 39 0 32
08:10 1028 30.36 857 25.31 13.8 56.9 38 -0.2 31.6
08:15 1028 30.36 857 25.31 14.2 57.5 38 -0 31.9
08:20 1028 30.36 857 25.31 14.4 57.8 37 0.1 32.2
08:25 1028 30.36 857 25.31 14.8 58.6 37 0.3 32.5
08:30 1028 30.36 857 25.31 14.8 58.7 38 0.7 33.2
08:35 1028 30.36 857 25.31 15 59 37 0.7 33.2
08:40 1028 30.36 857 25.31 15.2 59.4 35 -0.2 31.6
08:45 1027 30.33 857 25.31 15.2 59.4 34 -0.4 31.3
08:50 1028 30.36 857 25.31 15.4 59.7 34 -0.2 31.7
08:55 1028 30.36 857 25.31 15.6 60.2 34 0 32
09:00 1028 30.36 857 25.31 16 60.8 34 0.1 32.2
09:05 1028 30.36 857 25.31 16.1 61 33 0.1 32.2
09:10 1028 30.36 857 25.31 16.3 61.4 33 0.3 32.5
09:15 1028 30.36 857 25.31 16.7 62 33 0.4 32.7
09:20 1028 30.36 857 25.31 16.8 62.2 32 -0 32
09:25 1027 30.33 857 25.31 16.8 62.3 32 0.3 32.5
09:30 1027 30.33 857 25.31 17.3 63.1 32 0.5 33
09:35 1027 30.33 857 25.31 17.3 63.1 32 0.4 32.8
09:40 1027 30.33 857 25.31 17.7 63.8 31 0.6 33.1
09:45 1027 30.33 856 25.28 17.6 63.8 32 0.8 33.4
09:50 1027 30.33 857 25.31 17.8 64.1 31 0.5 32.9
09:55 1027 30.33 856 25.28 17.7 63.8 31 0.7 33.2
10:00 1027 30.33 856 25.28 17.3 63.2 33 1 33.7
10:05 1027 30.33 856 25.28 18.5 65.2 31 1.1 33.9
10:10 1027 30.33 856 25.28 19 66.1 29 0.8 33.4
10:15 1027 30.33 856 25.28 19.1 66.4 29 0.9 33.6
10:20 1027 30.33 856 25.28 19.3 66.8 30 1.3 34.3
10:25 1027 30.33 856 25.28 19.1 66.4 31 1.8 35.2
10:30 1027 30.33 856 25.28 19.3 66.7 28 0.2 32.4
10:35 1027 30.33 856 25.28 19.6 67.3 28 0.7 33.2
10:40 1027 30.33 856 25.28 19.7 67.4 27 0.5 33
10:45 1027 30.33 856 25.28 19.9 67.7 28 0.8 33.5
10:50 1027 30.33 856 25.28 20.1 68.2 28 1.1 34
10:55 1027 30.33 856 25.28 20.3 68.5 29 2 35.6
11:00 1027 30.33 856 25.28 20.6 69 28 1.8 35.3
11:05 1027 30.33 856 25.28 20.2 68.4 28 1.2 34.1
11:10 1027 30.33 856 25.28 21 69.8 27 1.6 34.9
11:15 1027 30.33 856 25.28 20.4 68.8 28 1.5 34.8
11:20 1027 30.33 856 25.28 20.4 68.6 29 1.9 35.4
11:25 1027 30.33 856 25.28 20.6 69.1 29 2 35.6
11:30 1027 30.33 856 25.28 20.2 68.4 30 2.1 35.7
11:35 1027 30.33 856 25.28 21 69.8 28 1.9 35.5
11:40 1026 30.3 856 25.28 22 71.6 26 2 35.7
11:45 1026 30.3 856 25.28 21.3 70.4 28 2.5 36.5
11:50 1026 30.3 856 25.28 21.7 71 28 2.4 36.4
11:55 1026 30.3 856 25.28 21.6 70.8 27 2 35.7
12:00 1026 30.3 855 25.25 22.6 72.6 27 2.7 36.8
12:05 1026 30.3 855 25.25 22.9 73.2 23 1.1 34
12:10 1026 30.3 855 25.25 22.8 73 24 1.2 34.1
12:15 1026 30.3 855 25.25 23 73.3 22 0.4 32.6
12:20 1026 30.3 855 25.25 23 73.3 21 -0.3 31.4
12:25 1026 30.3 855 25.25 23.5 74.3 20 -0.4 31.2
12:30 1026 30.3 855 25.25 24 75.2 19 -0.6 30.9
12:35 1026 30.3 855 25.25 23.9 75 19 -1.1 29.9
12:40 1026 30.3 855 25.25 24.1 75.4 19 -1.1 30.1
12:45 1026 30.3 855 25.25 24.2 75.5 18 -1.3 29.7
12:50 1026 30.3 855 25.25 24.7 76.5 18 -0.8 30.6
12:55 1026 30.3 855 25.25 24.5 76.1 18 -0.9 30.3
13:00 1026 30.3 855 25.25 24.7 76.5 18 -0.8 30.5
13:05 1026 30.3 855 25.25 25 77 18 -0.9 30.3
13:10 1026 30.3 855 25.25 25.2 77.4 20 0.9 33.6
13:15 1026 30.3 855 25.25 24.9 76.9 20 0.9 33.6
13:20 1026 30.3 855 25.25 24.3 75.8 19 -0.8 30.5
13:25 1025 30.27 855 25.25 24.8 76.7 19 0 32.1
13:30 1025 30.27 855 25.25 24.8 76.6 17 -1.6 29.1
13:35 1025 30.27 855 25.25 25 77.1 19 -0.3 31.5
13:40 1025 30.27 855 25.25 25 77 16 -2.6 27.4
13:45 1025 30.27 855 25.25 26 78.8 17 -0.4 31.3
13:50 1025 30.27 854 25.22 24.9 76.9 17 -1.2 29.8
13:55 1025 30.27 854 25.22 25.6 78 15 -2.3 27.9
14:00 1025 30.27 854 25.22 26.3 79.3 14 -3.4 26
14:05 1025 30.27 854 25.22 26.1 78.9 13 -4 24.8
14:10 1025 30.27 854 25.22 26.2 79.2 14 -2.7 27.1
14:15 1025 30.27 854 25.22 25.7 78.3 14 -3.1 26.4
14:20 1025 30.27 854 25.22 26 78.7 13 -4.7 23.6
14:25 1025 30.27 854 25.22 25.9 78.6 12 -5 22.9
14:30 1025 30.27 854 25.22 26.4 79.6 12 -5.2 22.6
14:35 1025 30.27 854 25.22 26.6 79.8 12 -4.6 23.7
14:40 1025 30.27 854 25.22 27.1 80.7 12 -4.5 23.9
14:45 1025 30.27 854 25.22 26.7 80.1 13 -3.6 25.6
14:50 1025 30.27 854 25.22 27.4 81.2 12 -3.9 24.9
14:55 1025 30.27 854 25.22 27.6 81.7 13 -3 26.6
15:00 1025 30.27 854 25.22 27.6 81.7 12 -4.4 24.2
15:05 1025 30.27 854 25.22 27.1 80.8 13 -3.7 25.4
15:10 1025 30.27 854 25.22 27 80.5 13 -3.6 25.5
15:15 1025 30.27 854 25.22 27.4 81.2 13 -3.3 26
15:20 1025 30.27 854 25.22 26.8 80.3 14 -2.5 27.6
15:25 1025 30.27 854 25.22 26.4 79.5 14 -3 26.7
15:30 1025 30.27 854 25.22 26.2 79.1 14 -3 26.6
15:35 1024 30.24 854 25.22 26.1 79 14 -3.1 26.5
15:40 1024 30.24 854 25.22 26.1 79 14 -3.5 25.7
15:45 1024 30.24 854 25.22 26.2 79.2 14 -3.1 26.4
15:50 1024 30.24 854 25.22 26.5 79.7 14 -3 26.7
15:55 1024 30.24 854 25.22 26.1 79 14 -3 26.7
16:00 1024 30.24 853 25.19 26.4 79.5 14 -2.8 27
16:05 1024 30.24 853 25.19 26.6 79.8 14 -2.7 27.2
16:10 1024 30.24 853 25.19 26.6 79.9 14 -3 26.7
16:15 1024 30.24 853 25.19 26.3 79.4 13 -3.5 25.6
16:20 1024 30.24 853 25.19 26.8 80.3 14 -2.6 27.4
16:25 1024 30.24 853 25.19 26.9 80.4 14 -2.9 26.8
16:30 1024 30.24 853 25.19 26.6 79.8 14 -3 26.5
16:35 1024 30.24 853 25.19 26.2 79.2 15 -2.6 27.4
16:40 1024 30.24 853 25.19 25.9 78.5 15 -2.1 28.1
16:45 1024 30.24 853 25.19 25.8 78.4 15 -2.8 27
16:50 1024 30.24 853 25.19 26.3 79.3 14 -3.1 26.5
16:55 1024 30.24 853 25.19 25.8 78.5 15 -2.9 26.8
17:00 1024 30.24 853 25.19 26.2 79.2 14 -3.3 26.1
17:05 1024 30.24 853 25.19 26.5 79.7 14 -3 26.6
17:10 1024 30.24 853 25.19 26.5 79.6 14 -2.7 27.1
17:15 1024 30.24 853 25.19 26.7 80 14 -2.5 27.5
17:20 1024 30.24 853 25.19 26.4 79.6 14 -2.7 27.1
17:25 1024 30.24 853 25.19 26.3 79.3 15 -2.5 27.4
17:30 1024 30.24 853 25.19 26.6 79.8 15 -2.1 28.3
17:35 1024 30.24 853 25.19 26.6 80 14 -2.6 27.4
17:40 1024 30.24 853 25.19 26.2 79.1 15 -2.2 28.1
17:45 1024 30.24 853 25.19 26.2 79.1 14 -2.7 27.1
17:50 1024 30.24 853 25.19 26.1 79 15 -2 28.4
17:55 1024 30.24 853 25.19 25.9 78.6 15 -2 28.3
18:00 1024 30.24 853 25.19 25.9 78.6 15 -2.2 28.1
18:05 1024 30.24 853 25.19 25.7 78.3 15 -2.5 27.5
18:10 1024 30.24 853 25.19 25.7 78.2 16 -2 28.4
18:15 1023 30.21 853 25.19 25.4 77.8 16 -2.1 28.3
18:20 1023 30.21 853 25.19 25.6 78 16 -2.1 28.3
18:25 1023 30.21 853 25.19 25.5 77.8 15 -2.5 27.6
18:30 1023 30.21 853 25.19 25 76.9 16 -2.5 27.4
18:35 1023 30.21 852 25.16 25 77 16 -2.6 27.4
18:40 1023 30.21 852 25.16 25 76.9 16 -2.4 27.6
18:45 1023 30.21 852 25.16 24.9 76.8 15 -2.9 26.7
18:50 1023 30.21 852 25.16 24.7 76.5 15 -3 26.6
18:55 1023 30.21 852 25.16 24.5 76.2 16 -2.9 26.8
19:00 1023 30.21 852 25.16 24.5 76.2 15 -3.2 26.2
19:05 1023 30.21 852 25.16 24.3 75.7 15 -3.7 25.3
19:10 1023 30.21 852 25.16 24.1 75.4 16 -3.3 26.1
19:15 1023 30.21 852 25.16 24.1 75.3 16 -3.4 26
19:20 1023 30.21 852 25.16 24 75.1 16 -3.5 25.6
19:25 1023 30.21 852 25.16 23.8 74.9 15 -3.8 25.1
19:30 1023 30.21 852 25.16 23.7 74.7 16 -3.5 25.7
19:35 1023 30.21 852 25.16 23.6 74.6 16 -3.5 25.7
19:40 1023 30.21 852 25.16 23.5 74.2 18 -2.2 28
19:45 1023 30.21 852 25.16 23.3 74 18 -2.1 28.3
19:50 1023 30.21 852 25.16 23.2 73.7 19 -1.5 29.3
19:55 1023 30.21 852 25.16 22.9 73.3 20 -1.1 30
20:00 1023 30.21 853 25.19 22.8 73 21 -0.4 31.3
20:05 1023 30.21 853 25.19 22.6 72.7 22 0 32
20:10 1023 30.21 853 25.19 22.4 72.2 23 0.3 32.5
20:15 1023 30.21 853 25.19 22.1 71.8 23 0.5 32.9
20:20 1023 30.21 853 25.19 21.9 71.5 24 0.7 33.3
20:25 1023 30.21 853 25.19 21.8 71.2 25 1 33.7
20:30 1023 30.21 852 25.16 21.6 70.9 25 1.1 34
20:35 1023 30.21 853 25.19 21.4 70.4 27 1.6 34.8
20:40 1023 30.21 852 25.16 21.1 70 27 1.7 35
20:45 1023 30.21 853 25.19 20.9 69.6 28 1.9 35.4
20:50 1023 30.21 853 25.19 20.6 69 29 1.9 35.5
20:55 1023 30.21 853 25.19 20.5 68.8 28 1.4 34.6
21:00 1023 30.21 853 25.19 20.5 69 27 1.3 34.3
21:05 1023 30.21 853 25.19 20.7 69.3 27 1.2 34.2
21:10 1023 30.21 853 25.19 20.6 69.1 27 1.4 34.4
21:15 1024 30.24 853 25.19 20.5 68.8 28 1.4 34.5
21:20 1024 30.24 853 25.19 20.4 68.6 28 1.4 34.4
21:25 1024 30.24 853 25.19 20.3 68.6 28 1.4 34.4
21:30 1024 30.24 853 25.19 20.2 68.4 28 1.3 34.4
21:35 1024 30.24 853 25.19 20.1 68.2 28 1.4 34.5
21:40 1024 30.24 853 25.19 20 68 28 1.3 34.3
21:45 1024 30.24 853 25.19 19.9 67.7 28 1.1 34.1
21:50 1024 30.24 853 25.19 19.9 67.8 29 1.3 34.3
21:55 1024 30.24 853 25.19 19.9 67.7 29 1.3 34.3
22:00 1024 30.24 853 25.19 19.9 67.7 28 1.2 34.2
22:05 1024 30.24 853 25.19 19.7 67.5 29 1.3 34.3
22:10 1024 30.24 853 25.19 19.5 67.1 29 1.3 34.3
22:15 1024 30.24 853 25.19 19.4 66.9 29 1.3 34.3
22:20 1024 30.24 853 25.19 19.3 66.7 30 1.3 34.3
22:25 1024 30.24 853 25.19 19.2 66.5 30 1.3 34.3
22:30 1024 30.24 853 25.19 19.1 66.3 30 1.3 34.4
22:35 1024 30.24 853 25.19 18.9 66 30 1.3 34.3
22:40 1024 30.24 853 25.19 18.9 66 30 1.2 34.2
22:45 1024 30.24 853 25.19 18.8 65.8 30 1.2 34.2
22:50 1024 30.24 853 25.19 18.8 65.8 30 1.2 34.1
22:55 1024 30.24 853 25.19 18.7 65.6 31 1.2 34.2
23:00 1024 30.24 853 25.19 18.6 65.6 31 1.2 34.2
23:05 1024 30.24 853 25.19 18.4 65.2 31 1.2 34.2
23:10 1024 30.24 853 25.19 18.4 65 31 1.1 34
23:15 1024 30.24 853 25.19 18.3 65 31 1.1 34
23:20 1024 30.24 853 25.19 18.3 65 31 1.1 34
23:25 1024 30.24 853 25.19 18.2 64.8 32 1.3 34.3
23:30 1024 30.24 853 25.19 18 64.4 32 1.2 34.1
23:35 1024 30.24 853 25.19 17.9 64.2 32 1.2 34.1
23:40 1024 30.24 853 25.19 17.9 64.1 32 1.1 34
23:45 1024 30.24 853 25.19 17.9 64.1 33 1.3 34.4
23:50 1024 30.24 853 25.19 17.7 63.8 33 1.2 34.1
23:55 1024 30.24 853 25.19 17.6 63.8 32 1.1 33.9
24:00 1024 30.24 853 25.19 17.6 63.6 33 1.2 34.1